Time;durP1;ratioP1;P1;durP2;ratioP2;P2;SDS_P1;SDS_P2;PMS_P1;PMS_P2;Temp;Humidity;BMP_temperature;BMP_pressure;BME280_temperature;BME280_humidity;BME280_pressure;Samples;Min_cycle;Max_cycle;Signal;HPM_P1;HPM_P2
2021/10/21 20:42:17;;;;;;;15.80;9.23;;;;;;;;;;10627804;27;20621;-83
2021/10/21 20:47:18;;;;;;;29.77;9.27;;;;;;;;;;10601271;28;20027;-82
2021/10/21 20:52:18;;;;;;;18.17;9.07;;;;;;;;;;10595994;28;20027;-84
2021/10/21 20:57:18;;;;;;;19.60;9.17;;;;;;;;;;10593487;28;20032;-85
2021/10/21 21:02:21;;;;;;;15.13;8.50;;;;;;;;;;10609818;28;20036;-83
2021/10/21 21:07:21;;;;;;;17.42;8.35;;;;;;;;;;10590377;28;20388;-86
2021/10/21 21:12:21;;;;;;;15.68;7.95;;;;;;;;;;10623574;28;20036;-85
2021/10/21 21:17:22;;;;;;;22.63;8.13;;;;;;;;;;10578836;28;20103;-85
2021/10/21 21:22:23;;;;;;;20.90;7.57;;;;;;;;;;10587733;28;20498;-83
2021/10/21 21:27:24;;;;;;;12.60;7.70;;;;;;;;;;10613813;28;20455;-84
2021/10/21 21:32:24;;;;;;;19.27;7.20;;;;;;;;;;10583487;28;20481;-81
2021/10/21 21:37:25;;;;;;;21.23;8.00;;;;;;;;;;10600898;28;20530;-79
2021/10/21 21:42:26;;;;;;;17.08;7.47;;;;;;;;;;10602905;28;20034;-82
2021/10/21 21:47:26;;;;;;;13.30;6.85;;;;;;;;;;10572264;28;20113;-79
2021/10/21 21:52:27;;;;;;;12.03;6.70;;;;;;;;;;10559811;28;20105;-81
2021/10/21 21:57:27;;;;;;;12.10;6.23;;;;;;;;;;10551037;28;20377;-82
2021/10/21 22:02:28;;;;;;;16.13;6.65;;;;;;;;;;10570705;28;20432;-85
2021/10/21 22:07:29;;;;;;;12.48;6.53;;;;;;;;;;10565124;28;20027;-84
2021/10/21 22:12:30;;;;;;;9.32;5.93;;;;;;;;;;10560392;28;20046;-83
2021/10/21 22:17:30;;;;;;;9.77;6.20;;;;;;;;;;10544858;28;20378;-85
2021/10/21 22:22:30;;;;;;;12.03;6.43;;;;;;;;;;10560244;28;20097;-85
2021/10/21 22:27:31;;;;;;;9.40;6.18;;;;;;;;;;10561898;28;20510;-85
2021/10/21 22:32:31;;;;;;;10.35;6.10;;;;;;;;;;10535885;28;20032;-87
2021/10/21 22:37:32;;;;;;;13.25;6.28;;;;;;;;;;10554801;28;20036;-84
2021/10/21 22:42:32;;;;;;;14.18;5.95;;;;;;;;;;10557987;28;20036;-86
2021/10/21 22:47:34;;;;;;;10.30;5.70;;;;;;;;;;10557592;28;20108;-84
2021/10/21 22:52:35;;;;;;;8.82;6.30;;;;;;;;;;10562098;28;20476;-84
2021/10/21 22:57:36;;;;;;;7.93;5.45;;;;;;;;;;10565820;28;20376;-85
2021/10/21 23:02:37;;;;;;;11.80;5.90;;;;;;;;;;10555905;28;20028;-85
2021/10/21 23:07:38;;;;;;;7.97;5.68;;;;;;;;;;10567941;28;20119;-85
2021/10/21 23:12:38;;;;;;;12.88;5.32;;;;;;;;;;10567097;28;20467;-85
2021/10/21 23:17:38;;;;;;;8.77;5.07;;;;;;;;;;10556879;28;20045;-84
2021/10/21 23:22:39;;;;;;;10.77;5.23;;;;;;;;;;10565904;28;20444;-87
2021/10/21 23:27:39;;;;;;;7.30;4.75;;;;;;;;;;10554846;28;20039;-86
2021/10/21 23:32:40;;;;;;;8.00;4.97;;;;;;;;;;10578598;28;20438;-86
2021/10/21 23:37:40;;;;;;;11.75;6.20;;;;;;;;;;10573096;28;20043;-85
2021/10/21 23:42:41;;;;;;;14.50;5.63;;;;;;;;;;10550174;28;20043;-85
2021/10/21 23:47:41;;;;;;;13.93;5.15;;;;;;;;;;10565633;28;20097;-86
2021/10/21 23:52:42;;;;;;;12.23;5.50;;;;;;;;;;10564245;28;20084;-85
2021/10/21 23:57:43;;;;;;;14.40;4.83;;;;;;;;;;10540595;28;20024;-86
